Time;durP1;ratioP1;P1;durP2;ratioP2;P2;SDS_P1;SDS_P2;PMS_P1;PMS_P2;Temp;Humidity;BMP_temperature;BMP_pressure;BME280_temperature;BME280_humidity;BME280_pressure;Samples;Min_cycle;Max_cycle;Signal;HPM_P1;HPM_P2
2022/05/13 00:01:07;;;;;;;6.30;1.50;;;;;12.00;101432.00;;;;9974013;29;20278;-80
2022/05/13 00:06:09;;;;;;;7.30;1.43;;;;;12.00;101424.00;;;;9972478;29;20209;-81
2022/05/13 00:11:11;;;;;;;5.53;1.20;;;;;12.00;101430.00;;;;9969206;29;20322;-80
2022/05/13 00:16:13;;;;;;;2.10;1.10;;;;;11.90;101436.00;;;;9949653;29;20430;-80
2022/05/13 00:21:16;;;;;;;4.53;1.57;;;;;11.90;101429.00;;;;10036795;29;20239;-80
2022/05/13 00:26:18;;;;;;;6.33;2.00;;;;;11.80;101423.00;;;;10011571;29;20255;-79
2022/05/13 00:31:19;;;;;;;6.67;1.40;;;;;11.70;101420.00;;;;9994023;29;20223;-80
2022/05/13 00:36:21;;;;;;;7.50;2.10;;;;;11.60;101431.00;;;;9973869;29;20237;-80
2022/05/13 00:41:23;;;;;;;9.90;1.50;;;;;11.50;101423.00;;;;9981130;29;20221;-80
2022/05/13 00:46:28;;;;;;;6.13;1.60;;;;;11.50;101419.00;;;;9995549;29;20205;-80
2022/05/13 00:51:43;;;;;;;6.93;1.50;;;;;11.40;101422.00;;;;9985329;29;20305;-80
2022/05/13 00:56:48;;;;;;;10.33;2.07;;;;;11.30;101426.00;;;;9966301;29;20562;-80
2022/05/13 01:01:50;;;;;;;7.60;1.40;;;;;11.30;101426.00;;;;9962005;29;20237;-79
2022/05/13 01:06:56;;;;;;;4.50;1.80;;;;;11.30;101429.00;;;;9979229;29;20198;-79
2022/05/13 01:12:01;;;;;;;6.60;1.50;;;;;11.20;101430.00;;;;9964186;29;20236;-78
2022/05/13 01:23:11;;;;;;;7.93;1.93;;;;;11.10;101414.00;;;;10008585;29;20281;-79
2022/05/13 01:28:19;;;;;;;4.67;1.67;;;;;11.10;101418.00;;;;9978659;29;20205;-78
2022/05/13 01:33:22;;;;;;;9.10;1.70;;;;;11.00;101412.00;;;;10017625;29;20554;-79
2022/05/13 01:38:28;;;;;;;8.13;1.93;;;;;11.00;101406.00;;;;10045960;29;20232;-79
2022/05/13 01:43:30;;;;;;;10.83;2.47;;;;;11.00;101428.00;;;;10031229;29;20234;-78
2022/05/13 01:48:32;;;;;;;6.63;1.53;;;;;10.90;101427.00;;;;10045932;29;20201;-78
2022/05/13 01:53:35;;;;;;;5.80;2.00;;;;;10.90;101421.00;;;;10030977;29;20246;-79
2022/05/13 01:58:37;;;;;;;13.17;3.67;;;;;10.90;101418.00;;;;10015083;29;20707;-79
2022/05/13 02:03:45;;;;;;;12.37;2.20;;;;;10.90;101417.00;;;;9958615;29;20275;-80
2022/05/13 02:08:50;;;;;;;9.60;2.17;;;;;10.90;101421.00;;;;9986595;29;20233;-79
2022/05/13 02:13:53;;;;;;;8.63;2.37;;;;;10.80;101412.00;;;;9962119;29;20209;-79
2022/05/13 02:18:55;;;;;;;7.27;2.30;;;;;10.80;101419.00;;;;9976883;29;20225;-79
2022/05/13 02:23:56;;;;;;;8.30;1.77;;;;;10.80;101420.00;;;;9992794;29;20645;-79
2022/05/13 02:29:01;;;;;;;8.13;2.50;;;;;10.80;101419.00;;;;9977203;29;20264;-79
2022/05/13 02:34:03;;;;;;;8.37;2.03;;;;;10.70;101424.00;;;;9976811;29;20684;-78
2022/05/13 02:39:05;;;;;;;12.77;2.33;;;;;10.60;101417.00;;;;10005683;29;20834;-79
2022/05/13 02:44:06;;;;;;;8.60;1.83;;;;;10.60;101422.00;;;;9970988;29;20208;-79
2022/05/13 02:49:15;;;;;;;6.97;2.10;;;;;10.50;101423.00;;;;9981667;29;20929;-79
2022/05/13 02:54:17;;;;;;;7.97;2.40;;;;;10.40;101410.00;;;;9950922;29;20210;-79
2022/05/13 02:59:19;;;;;;;8.20;2.20;;;;;10.40;101413.00;;;;9980595;29;20237;-79
2022/05/13 03:04:22;;;;;;;9.40;2.40;;;;;10.40;101415.00;;;;9967903;29;20206;-79
2022/05/13 03:09:24;;;;;;;10.47;2.47;;;;;10.40;101417.00;;;;9952462;29;20206;-81
2022/05/13 03:14:26;;;;;;;12.10;3.03;;;;;10.50;101412.00;;;;9951736;29;20218;-79
2022/05/13 03:19:28;;;;;;;6.27;2.27;;;;;10.60;101414.00;;;;9982568;29;20315;-79
2022/05/13 03:24:30;;;;;;;11.00;2.70;;;;;10.70;101407.00;;;;9967034;29;20210;-79
2022/05/13 03:29:35;;;;;;;7.80;2.30;;;;;10.70;101413.00;;;;9984128;29;20274;-78
2022/05/13 03:34:40;;;;;;;10.27;2.53;;;;;10.70;101404.00;;;;10004568;29;20202;-78
2022/05/13 03:39:42;;;;;;;7.57;2.63;;;;;10.80;101410.00;;;;10003477;29;20229;-80
2022/05/13 03:44:44;;;;;;;11.10;2.70;;;;;10.80;101407.00;;;;9989488;29;20201;-79
2022/05/13 03:49:47;;;;;;;8.90;2.57;;;;;10.70;101405.00;;;;9988491;29;20250;-79
2022/05/13 03:54:49;;;;;;;10.67;2.63;;;;;10.70;101405.00;;;;9989022;29;20225;-79
2022/05/13 03:59:51;;;;;;;8.77;2.73;;;;;10.60;101416.00;;;;9973619;29;20298;-79
2022/05/13 04:10:14;;;;;;;9.70;2.60;;;;;10.60;101419.00;;;;9991909;29;20217;-79
2022/05/13 04:20:38;;;;;;;13.07;3.23;;;;;10.70;101424.00;;;;9959930;29;20218;-79
2022/05/13 04:25:40;;;;;;;8.03;2.77;;;;;10.80;101420.00;;;;9968889;29;20198;-79
2022/05/13 04:30:42;;;;;;;7.20;2.53;;;;;11.00;101421.00;;;;9949993;29;20210;-78
2022/05/13 04:35:44;;;;;;;8.30;2.57;;;;;11.10;101423.00;;;;10005904;29;20273;-78
2022/05/13 04:40:46;;;;;;;12.50;3.07;;;;;11.20;101428.00;;;;9990530;29;20275;-79
2022/05/13 04:45:48;;;;;;;10.93;3.27;;;;;11.20;101433.00;;;;10021180;29;20198;-76
2022/05/13 04:50:53;;;;;;;11.10;2.93;;;;;11.30;101437.00;;;;10006273;29;20267;-78
2022/05/13 04:55:57;;;;;;;15.13;3.70;;;;;11.20;101445.00;;;;10022023;29;20205;-78
2022/05/13 05:01:01;;;;;;;13.40;3.50;;;;;11.20;101453.00;;;;9966194;29;20241;-78
2022/05/13 05:06:04;;;;;;;8.27;3.73;;;;;11.20;101466.00;;;;9991153;29;20201;-79
2022/05/13 05:11:08;;;;;;;13.77;3.20;;;;;11.30;101466.00;;;;10021707;29;20202;-77
2022/05/13 05:16:15;;;;;;;13.00;4.03;;;;;11.50;101457.00;;;;9961914;29;20246;-77
2022/05/13 05:21:18;;;;;;;15.07;3.70;;;;;11.60;101471.00;;;;9981843;29;20218;-79
2022/05/13 05:26:19;;;;;;;14.23;3.63;;;;;11.80;101477.00;;;;9959039;29;20201;-78
2022/05/13 05:31:21;;;;;;;18.10;4.40;;;;;12.00;101483.00;;;;10005619;29;20253;-78
2022/05/13 05:36:23;;;;;;;13.53;3.73;;;;;12.10;101491.00;;;;10011141;29;20206;-78
2022/05/13 05:41:26;;;;;;;15.30;3.90;;;;;12.30;101493.00;;;;9974799;29;20237;-78
2022/05/13 05:46:29;;;;;;;12.53;4.40;;;;;12.40;101497.00;;;;9988549;29;20202;-78
2022/05/13 05:51:31;;;;;;;10.67;3.50;;;;;12.80;101504.00;;;;10007414;29;20257;-78
2022/05/13 06:01:53;;;;;;;9.80;3.77;;;;;13.10;101523.00;;;;10033330;29;20277;-78
2022/05/13 06:06:55;;;;;;;15.70;4.10;;;;;13.50;101520.00;;;;10018602;29;20201;-79
2022/05/13 06:11:57;;;;;;;14.13;4.50;;;;;14.00;101516.00;;;;10048704;29;20197;-79
2022/05/13 06:17:00;;;;;;;9.97;3.77;;;;;14.30;101532.00;;;;10044580;29;20229;-79
2022/05/13 06:22:02;;;;;;;15.93;4.60;;;;;14.70;101547.00;;;;9980264;29;20274;-79
2022/05/13 06:27:04;;;;;;;10.27;3.73;;;;;14.90;101548.00;;;;9995357;29;20190;-79
2022/05/13 06:32:06;;;;;;;16.47;4.70;;;;;15.10;101548.00;;;;9964589;29;20209;-78
2022/05/13 06:37:08;;;;;;;12.60;4.20;;;;;15.60;101565.00;;;;10046012;29;20656;-79
2022/05/13 06:42:11;;;;;;;12.10;3.90;;;;;15.90;101566.00;;;;9995053;29;20281;-79
2022/05/13 06:47:16;;;;;;;9.00;3.53;;;;;16.00;101572.00;;;;9994200;29;20265;-79
2022/05/13 06:52:18;;;;;;;12.77;3.47;;;;;16.10;101576.00;;;;9993948;29;20197;-79
2022/05/13 06:57:40;;;;;;;12.97;3.60;;;;;16.40;101574.00;;;;9994166;29;20204;-79
2022/05/13 07:02:43;;;;;;;14.47;3.60;;;;;17.20;101573.00;;;;9993204;29;20228;-79
2022/05/13 07:07:45;;;;;;;10.20;3.47;;;;;17.80;101576.00;;;;10007664;29;20202;-79
2022/05/13 07:12:48;;;;;;;17.15;4.00;;;;;18.10;101577.00;;;;10008996;29;20301;-78
2022/05/13 07:17:50;;;;;;;10.90;3.00;;;;;18.80;101583.00;;;;9977322;29;20222;-79
2022/05/13 07:22:53;;;;;;;8.52;3.00;;;;;19.40;101586.00;;;;9939694;29;20215;-79
2022/05/13 07:27:55;;;;;;;11.27;2.97;;;;;19.60;101587.00;;;;9969540;29;20263;-79
2022/05/13 07:32:57;;;;;;;9.32;2.90;;;;;19.70;101584.00;;;;10017361;29;20214;-79
2022/05/13 07:37:59;;;;;;;9.68;2.80;;;;;19.70;101595.00;;;;9975258;29;20265;-78
2022/05/13 07:43:03;;;;;;;8.60;2.65;;;;;19.50;101599.00;;;;9984315;29;20222;-79
2022/05/13 07:48:05;;;;;;;9.07;2.88;;;;;19.80;101600.00;;;;9953638;29;20230;-79
2022/05/13 07:53:08;;;;;;;7.78;2.72;;;;;20.00;101594.00;;;;9954652;29;20670;-78
2022/05/13 07:58:10;;;;;;;13.55;3.55;;;;;20.50;101604.00;;;;9953778;29;20252;-78
2022/05/13 08:03:15;;;;;;;13.63;2.47;;;;;21.10;101600.00;;;;9953737;29;20686;-79
2022/05/13 08:08:30;;;;;;;6.93;2.30;;;;;21.50;101600.00;;;;9939128;29;20202;-79
2022/05/13 08:13:34;;;;;;;10.05;2.50;;;;;21.80;101597.00;;;;9999002;29;20186;-79
2022/05/13 08:18:36;;;;;;;7.38;2.75;;;;;22.30;101594.00;;;;9984678;29;20237;-79
2022/05/13 08:23:39;;;;;;;7.25;2.40;;;;;22.30;101598.00;;;;10013885;29;20217;-79
2022/05/13 08:28:41;;;;;;;14.30;2.95;;;;;23.00;101587.00;;;;10006095;29;20214;-78
2022/05/13 08:33:43;;;;;;;6.85;2.08;;;;;23.20;101592.00;;;;9960264;29;20202;-79
2022/05/13 08:38:50;;;;;;;10.65;2.13;;;;;23.60;101592.00;;;;9975794;29;20209;-78
2022/05/13 08:43:56;;;;;;;5.00;1.88;;;;;24.30;101592.00;;;;9990575;29;20221;-79
2022/05/13 08:49:23;;;;;;;8.80;2.28;;;;;24.90;101603.00;;;;9960034;29;20300;-76
2022/05/13 08:54:35;;;;;;;7.97;1.92;;;;;25.30;101602.00;;;;9974194;29;20654;-76
2022/05/13 08:59:49;;;;;;;5.00;1.58;;;;;24.90;101614.00;;;;9979230;29;20231;-77
2022/05/13 09:04:59;;;;;;;5.60;1.75;;;;;25.20;101605.00;;;;10012497;29;20205;-77
2022/05/13 09:10:06;;;;;;;5.15;1.67;;;;;26.30;101613.00;;;;9997116;29;20205;-77
2022/05/13 09:15:17;;;;;;;6.10;1.67;;;;;26.80;101616.00;;;;9996926;29;20214;-78
2022/05/13 09:20:24;;;;;;;6.13;1.90;;;;;25.70;101632.00;;;;9958647;29;20219;-77
2022/05/13 09:25:58;;;;;;;7.50;1.60;;;;;24.60;101622.00;;;;9974178;29;20195;-77
2022/05/13 09:31:27;;;;;;;5.55;1.80;;;;;23.70;101625.00;;;;10017814;29;20205;-77
2022/05/13 09:36:43;;;;;;;6.72;1.70;;;;;22.70;101624.00;;;;10011672;29;20229;-77
2022/05/13 09:41:45;;;;;;;4.32;1.20;;;;;22.10;101619.00;;;;10010789;29;20216;-77
2022/05/13 09:47:13;;;;;;;6.07;1.60;;;;;22.80;101622.00;;;;10012141;29;20202;-77
2022/05/13 09:52:37;;;;;;;3.05;1.35;;;;;22.30;101631.00;;;;9995386;29;20194;-78
2022/05/13 09:57:39;;;;;;;8.13;1.50;;;;;21.80;101633.00;;;;10010315;29;20266;-78
2022/05/13 10:02:46;;;;;;;7.57;1.88;;;;;21.90;101627.00;;;;10040243;29;20217;-78
2022/05/13 10:07:49;;;;;;;6.65;1.63;;;;;21.50;101638.00;;;;10010281;29;20276;-78
2022/05/13 10:18:29;;;;;;;5.68;1.45;;;;;22.20;101630.00;;;;10024696;29;20238;-78
2022/05/13 10:23:57;;;;;;;2.42;1.20;;;;;22.10;101638.00;;;;9994691;29;20266;-78
2022/05/13 10:29:39;;;;;;;10.50;1.75;;;;;22.30;101625.00;;;;10009675;29;20210;-78
2022/05/13 10:34:48;;;;;;;5.85;1.52;;;;;22.90;101635.00;;;;9994795;29;20533;-78
2022/05/13 10:39:58;;;;;;;5.45;1.58;;;;;24.60;101637.00;;;;9966658;29;20210;-79
2022/05/13 10:45:25;;;;;;;3.85;1.60;;;;;23.80;101642.00;;;;9971764;29;20293;-78
2022/05/13 10:51:07;;;;;;;5.75;1.67;;;;;22.50;101651.00;;;;9970759;29;20251;-78
2022/05/13 10:56:51;;;;;;;5.10;1.60;;;;;22.50;101639.00;;;;9985877;29;20230;-78
2022/05/13 11:02:42;;;;;;;8.25;1.52;;;;;23.90;101648.00;;;;9975319;29;20282;-79
2022/05/13 11:08:06;;;;;;;4.80;1.42;;;;;23.70;101644.00;;;;10002150;29;20212;-79
2022/05/13 11:13:11;;;;;;;6.88;2.00;;;;;24.80;101637.00;;;;9970227;29;20212;-78
2022/05/13 11:18:34;;;;;;;4.15;1.80;;;;;25.60;101630.00;;;;9984845;29;20876;-79
2022/05/13 11:29:40;;;;;;;5.90;1.50;;;;;24.60;101641.00;;;;9971210;29;20256;-79
2022/05/13 11:34:58;;;;;;;7.50;2.00;;;;;24.40;101638.00;;;;9991515;29;20277;-77
2022/05/13 11:40:15;;;;;;;4.00;1.60;;;;;24.60;101644.00;;;;9991481;29;20201;-78
2022/05/13 11:45:53;;;;;;;8.40;1.95;;;;;25.10;101633.00;;;;10006200;29;20645;-79
2022/05/13 11:51:06;;;;;;;6.07;1.60;;;;;25.60;101642.00;;;;10006434;29;20197;-79
2022/05/13 11:56:30;;;;;;;4.88;1.90;;;;;25.30;101636.00;;;;10006329;29;20206;-79
2022/05/13 12:01:36;;;;;;;5.15;1.63;;;;;26.40;101629.00;;;;9990298;29;20316;-80
2022/05/13 12:06:47;;;;;;;4.47;1.67;;;;;26.30;101628.00;;;;10005581;29;20244;-79
2022/05/13 12:12:06;;;;;;;5.47;1.50;;;;;25.20;101623.00;;;;10020458;29;20197;-79
2022/05/13 12:17:26;;;;;;;4.20;1.60;;;;;25.10;101621.00;;;;10020508;29;20229;-79
2022/05/13 12:22:31;;;;;;;7.75;1.58;;;;;25.30;101608.00;;;;10005752;29;20697;-79
2022/05/13 12:27:45;;;;;;;5.28;1.60;;;;;25.50;101623.00;;;;9990282;29;20265;-79
2022/05/13 12:32:49;;;;;;;6.07;1.60;;;;;25.80;101620.00;;;;10004576;29;20218;-78
2022/05/13 12:37:52;;;;;;;5.38;1.60;;;;;26.20;101623.00;;;;9989937;29;20242;-79
2022/05/13 12:42:54;;;;;;;6.18;1.75;;;;;27.10;101613.00;;;;9989390;29;20222;-79
2022/05/13 12:48:05;;;;;;;10.68;2.08;;;;;26.90;101622.00;;;;9990340;29;20193;-78
2022/05/13 12:53:28;;;;;;;4.00;1.77;;;;;27.50;101606.00;;;;10005682;29;20201;-77
2022/05/13 12:58:47;;;;;;;7.80;1.40;;;;;27.70;101602.00;;;;9989353;29;20206;-77
2022/05/13 13:03:49;;;;;;;7.32;1.83;;;;;27.80;101604.00;;;;9989473;29;20600;-79
2022/05/13 13:08:53;;;;;;;2.75;1.35;;;;;27.40;101608.00;;;;10004671;29;20198;-78
2022/05/13 13:14:15;;;;;;;4.70;1.50;;;;;27.50;101597.00;;;;10004239;29;20198;-78
2022/05/13 13:19:26;;;;;;;4.95;1.58;;;;;27.80;101599.00;;;;9974340;29;20225;-78
2022/05/13 13:24:30;;;;;;;4.55;1.40;;;;;28.10;101587.00;;;;9973784;29;20220;-78
2022/05/13 13:29:35;;;;;;;3.85;1.42;;;;;28.60;101589.00;;;;9989125;29;20193;-79
2022/05/13 13:34:39;;;;;;;5.40;1.35;;;;;29.50;101587.00;;;;9978236;29;20206;-79
2022/05/13 13:39:41;;;;;;;3.45;1.42;;;;;30.00;101591.00;;;;9981639;29;20198;-79
2022/05/13 13:44:46;;;;;;;5.30;1.42;;;;;29.60;101576.00;;;;9983323;29;20215;-79
2022/05/13 13:49:48;;;;;;;6.50;2.10;;;;;30.80;101569.00;;;;9943356;29;20209;-79
2022/05/13 13:54:58;;;;;;;8.32;1.70;;;;;31.60;101570.00;;;;9972874;29;20237;-79
2022/05/13 14:00:04;;;;;;;7.22;1.60;;;;;31.40;101574.00;;;;9978443;29;20214;-79
2022/05/13 14:05:27;;;;;;;5.07;1.60;;;;;30.70;101561.00;;;;9991064;29;20211;-79
2022/05/13 14:10:44;;;;;;;7.30;1.50;;;;;30.00;101561.00;;;;9988434;29;20223;-79
2022/05/13 14:16:00;;;;;;;6.97;1.80;;;;;31.00;101559.00;;;;9947396;29;20210;-79
2022/05/13 14:21:27;;;;;;;4.35;1.33;;;;;30.00;101564.00;;;;9995376;29;20948;-79
2022/05/13 14:26:48;;;;;;;7.15;1.90;;;;;29.90;101564.00;;;;10009536;29;20209;-79
2022/05/13 14:31:55;;;;;;;6.05;1.73;;;;;30.80;101552.00;;;;9993993;29;20293;-80
2022/05/13 14:37:01;;;;;;;4.60;1.42;;;;;30.50;101550.00;;;;9978690;29;20197;-80
2022/05/13 14:42:09;;;;;;;6.55;1.65;;;;;33.00;101545.00;;;;9951825;29;20222;-79
2022/05/13 14:47:26;;;;;;;8.13;1.70;;;;;33.40;101550.00;;;;9971362;29;20779;-80
2022/05/13 14:52:32;;;;;;;5.97;1.42;;;;;33.00;101539.00;;;;9956356;29;20194;-79
2022/05/13 14:57:42;;;;;;;5.53;1.50;;;;;32.20;101538.00;;;;9954254;29;20202;-79
2022/05/13 15:03:01;;;;;;;9.15;1.70;;;;;31.30;101539.00;;;;9970267;29;20219;-79
2022/05/13 15:08:45;;;;;;;3.55;1.15;;;;;30.90;101532.00;;;;9955012;29;20198;-79
2022/05/13 15:13:48;;;;;;;7.72;2.00;;;;;30.50;101540.00;;;;9978869;29;20246;-79
2022/05/13 15:18:51;;;;;;;7.05;1.50;;;;;31.50;101536.00;;;;9976957;29;20252;-79
2022/05/13 15:23:53;;;;;;;2.75;1.30;;;;;29.70;101540.00;;;;10006895;29;20214;-79
2022/05/13 15:28:55;;;;;;;4.75;1.83;;;;;27.90;101532.00;;;;9991528;29;20201;-79
2022/05/13 15:34:02;;;;;;;3.20;1.17;;;;;29.70;101528.00;;;;9951661;29;20230;-79
2022/05/13 15:39:04;;;;;;;4.43;1.20;;;;;29.90;101528.00;;;;10000620;29;20666;-79
2022/05/13 15:44:06;;;;;;;5.25;1.75;;;;;28.50;101532.00;;;;10006554;29;20322;-79
2022/05/13 15:54:30;;;;;;;5.55;1.65;;;;;25.80;101545.00;;;;9953655;29;20213;-79
2022/05/13 15:59:32;;;;;;;5.32;1.58;;;;;24.30;101541.00;;;;9970503;29;20255;-79
2022/05/13 16:04:34;;;;;;;8.57;1.58;;;;;23.60;101531.00;;;;10020428;29;20206;-79
2022/05/13 16:09:37;;;;;;;8.07;1.80;;;;;23.30;101534.00;;;;9989424;29;20208;-79
2022/05/13 16:14:39;;;;;;;6.65;2.03;;;;;23.80;101539.00;;;;9990039;29;20216;-79
2022/05/13 16:19:45;;;;;;;4.97;1.65;;;;;23.90;101542.00;;;;10013857;29;20221;-79
2022/05/13 16:24:47;;;;;;;5.85;1.77;;;;;23.00;101528.00;;;;10012792;29;20217;-79
2022/05/13 16:29:49;;;;;;;5.28;1.63;;;;;22.30;101540.00;;;;9999039;29;20201;-79
2022/05/13 16:34:55;;;;;;;5.47;1.90;;;;;22.20;101538.00;;;;9991547;29;20207;-79
2022/05/13 16:39:57;;;;;;;6.22;1.48;;;;;22.20;101538.00;;;;9967394;29;20202;-79
2022/05/13 16:44:59;;;;;;;7.82;1.35;;;;;22.20;101524.00;;;;9997166;29;20214;-79
2022/05/13 16:50:01;;;;;;;6.78;1.95;;;;;22.30;101523.00;;;;9966991;29;20198;-79
2022/05/13 16:55:04;;;;;;;7.25;1.73;;;;;22.20;101526.00;;;;9972544;29;20205;-80
2022/05/13 17:00:10;;;;;;;5.50;1.75;;;;;22.10;101527.00;;;;9948101;29;20244;-79
2022/05/13 17:05:15;;;;;;;7.15;1.92;;;;;21.90;101523.00;;;;9955096;29;20205;-78
2022/05/13 17:20:57;;;;;;;7.15;1.52;;;;;21.30;101538.00;;;;10001726;29;20539;-79
2022/05/13 17:26:00;;;;;;;4.88;1.30;;;;;21.10;101527.00;;;;9972686;29;20235;-78
2022/05/13 17:31:02;;;;;;;4.93;1.50;;;;;21.00;101540.00;;;;9958466;29;20198;-79
2022/05/13 17:36:05;;;;;;;5.72;1.70;;;;;20.80;101520.00;;;;9957990;29;20250;-79
2022/05/13 17:41:07;;;;;;;6.30;1.60;;;;;20.70;101527.00;;;;9957081;29;20683;-78
2022/05/13 17:46:09;;;;;;;5.43;1.80;;;;;20.60;101523.00;;;;9957601;29;20262;-78
2022/05/13 17:51:11;;;;;;;6.40;1.75;;;;;20.50;101533.00;;;;9964012;29;20185;-78
2022/05/13 17:56:13;;;;;;;6.60;1.70;;;;;20.40;101535.00;;;;9980929;29;20201;-79
2022/05/13 18:01:16;;;;;;;4.15;1.60;;;;;20.30;101526.00;;;;9964092;29;20217;-78
2022/05/13 18:06:18;;;;;;;5.85;1.52;;;;;20.10;101529.00;;;;9965139;29;20368;-78
2022/05/13 18:11:20;;;;;;;4.90;1.40;;;;;20.00;101534.00;;;;9994632;29;20619;-78
2022/05/13 18:16:26;;;;;;;6.53;1.52;;;;;19.90;101535.00;;;;9964853;29;20756;-78
2022/05/13 18:21:28;;;;;;;8.77;1.88;;;;;19.70;101538.00;;;;9979051;29;20245;-78
2022/05/13 18:26:30;;;;;;;6.18;1.30;;;;;19.50;101545.00;;;;9994288;29;20212;-79
2022/05/13 18:31:32;;;;;;;7.07;1.65;;;;;19.30;101540.00;;;;10008715;29;20604;-78
2022/05/13 18:36:34;;;;;;;6.60;1.40;;;;;19.10;101545.00;;;;9978876;29;20202;-78
2022/05/13 18:46:56;;;;;;;5.65;1.80;;;;;18.70;101548.00;;;;10024306;29;20201;-79
2022/05/13 18:51:59;;;;;;;4.30;1.35;;;;;18.40;101555.00;;;;9993225;29;20189;-78
2022/05/13 18:57:01;;;;;;;5.63;1.48;;;;;18.20;101558.00;;;;10007636;29;20326;-78
2022/05/13 19:02:04;;;;;;;6.60;1.58;;;;;18.00;101553.00;;;;10006977;29;20248;-79
2022/05/13 19:07:06;;;;;;;7.55;1.92;;;;;17.80;101572.00;;;;9977608;29;20205;-78
2022/05/13 19:12:10;;;;;;;6.20;1.67;;;;;17.60;101581.00;;;;10007750;29;20605;-78
2022/05/13 19:17:14;;;;;;;7.20;1.55;;;;;17.30;101577.00;;;;10013313;29;20229;-78
2022/05/13 19:22:16;;;;;;;5.07;1.93;;;;;17.10;101575.00;;;;10015587;29;20247;-78
2022/05/13 19:27:17;;;;;;;7.53;1.67;;;;;16.90;101577.00;;;;10046077;29;20201;-78
2022/05/13 19:32:20;;;;;;;13.70;1.70;;;;;16.60;101581.00;;;;9991624;29;20209;-78
2022/05/13 19:37:26;;;;;;;7.20;1.83;;;;;16.40;101583.00;;;;9992040;29;20341;-78
2022/05/13 19:42:28;;;;;;;1.93;1.20;;;;;16.30;101594.00;;;;9977950;29;20225;-77
2022/05/13 19:47:30;;;;;;;10.63;1.70;;;;;16.30;101601.00;;;;9962300;29;20285;-79
2022/05/13 19:52:33;;;;;;;6.97;2.03;;;;;16.10;101603.00;;;;9977551;29;20604;-77
2022/05/13 19:57:35;;;;;;;5.93;1.60;;;;;16.00;101598.00;;;;9992312;29;20246;-80
2022/05/13 20:02:37;;;;;;;4.57;1.70;;;;;15.90;101605.00;;;;9971741;29;20272;-79
2022/05/13 20:13:00;;;;;;;4.87;1.30;;;;;15.70;101603.00;;;;9990930;29;20657;-80
2022/05/13 20:18:02;;;;;;;5.93;1.93;;;;;15.60;101616.00;;;;10002809;29;20231;-80
2022/05/13 20:23:05;;;;;;;4.37;1.40;;;;;15.50;101621.00;;;;10030048;29;20695;-78
2022/05/13 20:28:07;;;;;;;6.40;1.67;;;;;15.40;101618.00;;;;10028927;29;20201;-78
2022/05/13 20:33:09;;;;;;;4.40;1.50;;;;;15.30;101617.00;;;;9984212;29;20607;-78
2022/05/13 20:38:12;;;;;;;6.37;1.40;;;;;15.20;101619.00;;;;10005347;29;20648;-78
2022/05/13 20:43:14;;;;;;;3.23;1.20;;;;;15.10;101619.00;;;;10006313;29;20242;-78
2022/05/13 20:48:16;;;;;;;4.57;1.70;;;;;15.10;101623.00;;;;9977792;29;20205;-77
2022/05/13 20:53:18;;;;;;;4.80;1.60;;;;;15.00;101624.00;;;;9976634;29;20197;-78
2022/05/13 20:58:20;;;;;;;6.37;1.50;;;;;14.90;101636.00;;;;9983924;29;20314;-78
2022/05/13 21:03:22;;;;;;;3.17;1.13;;;;;14.80;101631.00;;;;9998340;29;20225;-78
2022/05/13 21:08:24;;;;;;;5.33;1.40;;;;;14.70;101627.00;;;;10012796;29;20198;-78
2022/05/13 21:13:26;;;;;;;6.63;2.03;;;;;14.70;101631.00;;;;9983173;29;20238;-78
2022/05/13 21:18:28;;;;;;;5.93;1.70;;;;;14.60;101633.00;;;;9983154;29;20489;-78
2022/05/13 21:23:31;;;;;;;4.37;1.70;;;;;14.40;101636.00;;;;10035642;29;20546;-79
2022/05/13 21:28:34;;;;;;;7.03;1.47;;;;;14.30;101635.00;;;;10019801;29;20205;-78
2022/05/13 21:38:57;;;;;;;4.60;1.40;;;;;14.00;101635.00;;;;10009793;29;20604;-79
2022/05/13 21:43:59;;;;;;;5.37;1.60;;;;;13.90;101642.00;;;;9989181;29;20218;-78
2022/05/13 21:49:01;;;;;;;9.73;1.83;;;;;13.80;101639.00;;;;9958720;29;20214;-78
2022/05/13 21:54:03;;;;;;;4.70;1.30;;;;;13.70;101641.00;;;;9974638;29;20248;-78
2022/05/13 21:59:05;;;;;;;6.20;1.87;;;;;13.60;101643.00;;;;9974370;29;20206;-78
2022/05/13 22:04:06;;;;;;;6.70;1.87;;;;;13.30;101647.00;;;;10004779;29;20269;-78
2022/05/13 22:09:09;;;;;;;8.33;2.10;;;;;13.20;101644.00;;;;9984517;29;20281;-79
2022/05/13 22:14:11;;;;;;;8.13;2.10;;;;;13.20;101633.00;;;;10010906;29;20201;-78
2022/05/13 22:19:13;;;;;;;2.50;1.40;;;;;13.20;101644.00;;;;10016226;29;20221;-79
2022/05/13 22:24:16;;;;;;;5.47;1.40;;;;;13.20;101638.00;;;;10033580;29;20214;-79
2022/05/13 22:29:20;;;;;;;5.67;1.40;;;;;13.20;101641.00;;;;10021406;29;20205;-80
2022/05/13 22:34:22;;;;;;;6.63;1.63;;;;;13.10;101643.00;;;;9994918;29;20197;-79
2022/05/13 22:39:24;;;;;;;3.30;1.30;;;;;13.00;101635.00;;;;9980666;29;20195;-79
2022/05/13 22:44:26;;;;;;;7.20;1.63;;;;;13.00;101635.00;;;;9956705;29;20222;-79
2022/05/13 22:49:28;;;;;;;5.20;1.50;;;;;13.00;101636.00;;;;9956189;29;20678;-79
2022/05/13 22:54:31;;;;;;;10.10;2.57;;;;;12.90;101630.00;;;;9986671;29;20194;-79
2022/05/13 22:59:33;;;;;;;5.50;1.30;;;;;12.90;101638.00;;;;9958863;29;20635;-79
2022/05/13 23:04:35;;;;;;;5.47;1.30;;;;;12.80;101639.00;;;;10008341;29;20222;-78
2022/05/13 23:15:04;;;;;;;1.87;1.07;;;;;12.70;101635.00;;;;9993521;29;20213;-78
2022/05/13 23:20:06;;;;;;;3.07;1.47;;;;;12.60;101636.00;;;;9977974;29;20764;-78
2022/05/13 23:25:10;;;;;;;4.80;1.73;;;;;12.60;101644.00;;;;9993027;29;20217;-79
2022/05/13 23:30:13;;;;;;;2.67;1.40;;;;;12.50;101633.00;;;;9975662;29;20608;-78
2022/05/13 23:35:15;;;;;;;4.43;1.33;;;;;12.40;101645.00;;;;9969838;29;20198;-79
2022/05/13 23:40:17;;;;;;;5.43;1.47;;;;;12.30;101628.00;;;;9970134;29;20559;-78
2022/05/13 23:45:19;;;;;;;4.73;1.50;;;;;12.20;101632.00;;;;9955001;29;20226;-78
2022/05/13 23:50:21;;;;;;;2.93;1.50;;;;;12.00;101628.00;;;;9940009;29;20674;-80
